Time;durP1;ratioP1;P1;durP2;ratioP2;P2;SDS_P1;SDS_P2;PMS_P1;PMS_P2;Temp;Humidity;BMP_temperature;BMP_pressure;BME280_temperature;BME280_humidity;BME280_pressure;Samples;Min_cycle;Max_cycle;Signal;HPM_P1;HPM_P2
2023/12/05 00:03:17;;;;;;;17.67;10.90;;;;;;;;;;12821683;22;20453;-66
2023/12/05 00:08:15;;;;;;;18.75;10.65;;;;;;;;;;12822153;22;20023;-65
2023/12/05 00:13:11;;;;;;;16.23;11.20;;;;;;;;;;12821529;22;20027;-67
2023/12/05 00:18:09;;;;;;;18.15;11.07;;;;;;;;;;12819308;22;20023;-67
2023/12/05 00:23:05;;;;;;;20.65;12.60;;;;;;;;;;12814987;22;20019;-67
2023/12/05 00:28:02;;;;;;;16.30;10.77;;;;;;;;;;12821292;22;20110;-67
2023/12/05 00:32:58;;;;;;;19.10;12.02;;;;;;;;;;12820113;22;20034;-67
2023/12/05 00:37:54;;;;;;;16.95;10.95;;;;;;;;;;12821147;22;20027;-67
2023/12/05 00:42:50;;;;;;;17.60;11.18;;;;;;;;;;12821665;22;20392;-67
2023/12/05 00:47:47;;;;;;;14.32;10.13;;;;;;;;;;12821063;22;20051;-68
2023/12/05 00:52:43;;;;;;;20.20;11.75;;;;;;;;;;12821003;22;20054;-67
2023/12/05 00:57:40;;;;;;;14.30;10.55;;;;;;;;;;12825185;22;20027;-67
2023/12/05 01:02:36;;;;;;;15.52;11.15;;;;;;;;;;12823361;22;20530;-67
2023/12/05 01:07:33;;;;;;;20.30;11.70;;;;;;;;;;12825019;22;20024;-68
2023/12/05 01:12:29;;;;;;;16.20;11.45;;;;;;;;;;12818359;22;20027;-67
2023/12/05 01:17:25;;;;;;;16.90;10.93;;;;;;;;;;12824029;22;20026;-66
2023/12/05 01:22:21;;;;;;;15.98;10.27;;;;;;;;;;12817656;22;20046;-66
2023/12/05 01:27:18;;;;;;;18.02;10.82;;;;;;;;;;12824453;22;20395;-66
2023/12/05 01:32:14;;;;;;;14.77;10.45;;;;;;;;;;12822836;22;20030;-66
2023/12/05 01:37:11;;;;;;;15.23;11.25;;;;;;;;;;12823773;22;20031;-66
2023/12/05 01:42:07;;;;;;;17.00;11.65;;;;;;;;;;12822977;22;20461;-66
2023/12/05 01:47:04;;;;;;;18.52;11.00;;;;;;;;;;12824318;22;20015;-66
2023/12/05 01:52:01;;;;;;;17.38;11.73;;;;;;;;;;12823815;22;20053;-67
2023/12/05 01:56:59;;;;;;;18.70;10.73;;;;;;;;;;12823596;22;20033;-66
2023/12/05 02:01:55;;;;;;;14.68;10.55;;;;;;;;;;12823176;22;20024;-66
2023/12/05 02:06:52;;;;;;;19.10;11.38;;;;;;;;;;12823990;22;20365;-66
2023/12/05 02:11:48;;;;;;;20.38;11.18;;;;;;;;;;12822842;22;20023;-66
2023/12/05 02:16:53;;;;;;;16.75;10.50;;;;;;;;;;12819395;22;20114;-68
2023/12/05 02:21:52;;;;;;;18.23;12.05;;;;;;;;;;12815586;22;20027;-68
2023/12/05 02:27:04;;;;;;;16.60;11.60;;;;;;;;;;12823440;22;20020;-68
2023/12/05 02:32:00;;;;;;;20.40;11.43;;;;;;;;;;12823182;22;20030;-68
2023/12/05 02:37:01;;;;;;;19.98;11.85;;;;;;;;;;12821816;22;20027;-68
2023/12/05 02:41:59;;;;;;;17.40;11.50;;;;;;;;;;12822092;22;20058;-68
2023/12/05 02:46:56;;;;;;;20.92;12.57;;;;;;;;;;12822308;22;20023;-67
2023/12/05 02:51:52;;;;;;;20.48;13.32;;;;;;;;;;12821966;22;20504;-68
2023/12/05 02:56:49;;;;;;;22.42;11.80;;;;;;;;;;12820090;22;20034;-68
2023/12/05 03:01:45;;;;;;;25.45;12.70;;;;;;;;;;12821927;22;20357;-68
2023/12/05 03:06:41;;;;;;;19.85;12.80;;;;;;;;;;12821868;22;20369;-68
2023/12/05 03:11:38;;;;;;;19.45;13.05;;;;;;;;;;12821595;22;20023;-67
2023/12/05 03:16:34;;;;;;;21.58;13.70;;;;;;;;;;12814363;22;20049;-67
2023/12/05 03:21:31;;;;;;;23.98;12.65;;;;;;;;;;12813492;22;20027;-67
2023/12/05 03:26:27;;;;;;;18.60;12.30;;;;;;;;;;12819715;22;20029;-67
2023/12/05 03:31:23;;;;;;;20.95;13.35;;;;;;;;;;12818706;22;20023;-67
2023/12/05 03:36:20;;;;;;;21.70;11.98;;;;;;;;;;12820902;22;20027;-67
2023/12/05 03:41:16;;;;;;;24.58;14.13;;;;;;;;;;12821534;22;20541;-67
2023/12/05 03:46:12;;;;;;;25.02;13.85;;;;;;;;;;12821543;22;20097;-67
2023/12/05 03:51:12;;;;;;;18.90;13.82;;;;;;;;;;12822055;22;20080;-67
2023/12/05 03:56:08;;;;;;;23.38;14.90;;;;;;;;;;12820717;22;20024;-67
2023/12/05 04:01:04;;;;;;;22.55;14.98;;;;;;;;;;12821579;22;20057;-67
2023/12/05 04:06:02;;;;;;;24.45;15.13;;;;;;;;;;12821941;22;20465;-66
2023/12/05 04:10:58;;;;;;;22.40;15.25;;;;;;;;;;12820541;22;20089;-68
2023/12/05 04:15:55;;;;;;;28.60;16.92;;;;;;;;;;12815148;22;20023;-67
2023/12/05 04:20:51;;;;;;;28.92;16.63;;;;;;;;;;12820414;22;20496;-67
2023/12/05 04:25:47;;;;;;;28.83;16.73;;;;;;;;;;12815555;22;20041;-67
2023/12/05 04:30:44;;;;;;;22.90;16.30;;;;;;;;;;12822608;22;20015;-66
2023/12/05 04:35:40;;;;;;;30.15;16.20;;;;;;;;;;12825898;22;20019;-69
2023/12/05 04:40:37;;;;;;;32.83;18.50;;;;;;;;;;12830172;22;20050;-70
2023/12/05 04:45:33;;;;;;;25.83;16.45;;;;;;;;;;12829601;22;20485;-69
2023/12/05 04:50:30;;;;;;;33.67;19.63;;;;;;;;;;12818572;22;20021;-71
2023/12/05 04:55:26;;;;;;;27.23;18.67;;;;;;;;;;12822034;22;20031;-70
2023/12/05 05:00:23;;;;;;;28.05;18.65;;;;;;;;;;12823642;22;20457;-70
2023/12/05 05:05:19;;;;;;;34.90;20.55;;;;;;;;;;12821408;22;20082;-72
2023/12/05 05:10:16;;;;;;;30.02;19.83;;;;;;;;;;12821812;22;20065;-71
2023/12/05 05:15:12;;;;;;;29.67;18.48;;;;;;;;;;12823198;22;20023;-70
2023/12/05 05:20:09;;;;;;;34.55;20.55;;;;;;;;;;12822310;22;20019;-70
2023/12/05 05:25:06;;;;;;;30.50;18.83;;;;;;;;;;12808695;22;20058;-70
2023/12/05 05:30:04;;;;;;;33.92;20.83;;;;;;;;;;12816071;22;20465;-70
2023/12/05 05:35:00;;;;;;;33.30;19.35;;;;;;;;;;12821568;22;20073;-70
2023/12/05 05:39:57;;;;;;;32.45;20.05;;;;;;;;;;12821139;22;20027;-70
2023/12/05 05:44:53;;;;;;;30.73;20.27;;;;;;;;;;12823493;22;20499;-70
2023/12/05 05:49:50;;;;;;;37.35;22.05;;;;;;;;;;12820269;22;20019;-72
2023/12/05 05:54:50;;;;;;;26.65;20.38;;;;;;;;;;12819514;22;20403;-72
2023/12/05 05:59:47;;;;;;;31.17;20.58;;;;;;;;;;12821006;22;20027;-71
2023/12/05 06:04:43;;;;;;;32.08;20.95;;;;;;;;;;12822487;22;20034;-71
2023/12/05 06:09:39;;;;;;;34.15;21.98;;;;;;;;;;12822119;22;20019;-71
2023/12/05 06:14:36;;;;;;;36.70;20.90;;;;;;;;;;12821305;22;20019;-72
2023/12/05 06:19:32;;;;;;;27.90;20.80;;;;;;;;;;12818400;22;20481;-72
2023/12/05 06:24:29;;;;;;;33.10;23.48;;;;;;;;;;12810769;22;20540;-72
2023/12/05 06:29:25;;;;;;;34.45;21.33;;;;;;;;;;12817822;22;20445;-72
2023/12/05 06:34:22;;;;;;;33.90;21.80;;;;;;;;;;12817209;22;20501;-72
2023/12/05 06:39:18;;;;;;;29.20;21.13;;;;;;;;;;12817301;22;20024;-72
2023/12/05 06:44:15;;;;;;;32.03;21.98;;;;;;;;;;12822098;22;20019;-72
2023/12/05 06:49:11;;;;;;;31.30;21.65;;;;;;;;;;12821788;22;20392;-72
2023/12/05 06:54:07;;;;;;;32.05;22.85;;;;;;;;;;12824040;22;20030;-72
2023/12/05 06:59:04;;;;;;;33.72;22.00;;;;;;;;;;12825254;22;20027;-72
2023/12/05 07:04:01;;;;;;;34.75;21.25;;;;;;;;;;12824663;22;20030;-72
2023/12/05 07:08:58;;;;;;;34.00;21.67;;;;;;;;;;12823342;22;20019;-72
2023/12/05 07:13:54;;;;;;;36.13;22.88;;;;;;;;;;12824094;22;20050;-72
2023/12/05 07:18:51;;;;;;;37.63;22.88;;;;;;;;;;12822960;22;20469;-72
2023/12/05 07:23:47;;;;;;;38.30;24.25;;;;;;;;;;12824782;22;20089;-73
2023/12/05 07:28:55;;;;;;;42.60;23.77;;;;;;;;;;12820625;22;20069;-72
2023/12/05 07:33:53;;;;;;;37.40;24.23;;;;;;;;;;12825202;22;20023;-71
2023/12/05 07:38:51;;;;;;;35.70;21.63;;;;;;;;;;12824490;22;20710;-74
2023/12/05 07:43:49;;;;;;;37.28;22.60;;;;;;;;;;12822965;22;20077;-72
2023/12/05 07:48:46;;;;;;;38.72;23.20;;;;;;;;;;12822754;22;20023;-72
2023/12/05 07:53:43;;;;;;;41.10;23.80;;;;;;;;;;12822810;22;20023;-73
2023/12/05 07:58:39;;;;;;;36.15;21.63;;;;;;;;;;12822895;22;20024;-72
2023/12/05 08:03:35;;;;;;;39.97;22.95;;;;;;;;;;12823160;22;20019;-71
2023/12/05 08:08:34;;;;;;;39.20;22.60;;;;;;;;;;12822107;22;20065;-74
2023/12/05 08:13:30;;;;;;;40.00;22.92;;;;;;;;;;12821494;22;20106;-74
2023/12/05 08:18:27;;;;;;;38.58;24.00;;;;;;;;;;12821802;22;20027;-74
2023/12/05 08:23:23;;;;;;;38.35;22.92;;;;;;;;;;12821204;22;20045;-73
2023/12/05 08:28:19;;;;;;;35.60;22.60;;;;;;;;;;12815440;22;20027;-74
2023/12/05 08:33:16;;;;;;;39.35;22.60;;;;;;;;;;12822205;22;20023;-74
2023/12/05 08:38:12;;;;;;;39.25;23.60;;;;;;;;;;12822045;22;20023;-73
2023/12/05 08:43:10;;;;;;;38.47;24.17;;;;;;;;;;12821225;22;20019;-73
2023/12/05 08:48:06;;;;;;;30.90;19.88;;;;;;;;;;12821673;22;20486;-73
2023/12/05 08:53:03;;;;;;;38.00;22.15;;;;;;;;;;12820997;22;20135;-73
2023/12/05 08:57:59;;;;;;;36.55;22.40;;;;;;;;;;12821720;22;20361;-74
2023/12/05 09:02:56;;;;;;;35.78;22.55;;;;;;;;;;12820626;22;20051;-73
2023/12/05 09:07:52;;;;;;;38.20;22.98;;;;;;;;;;12821605;22;20522;-74
2023/12/05 09:12:50;;;;;;;41.03;23.58;;;;;;;;;;12824415;22;20430;-74
2023/12/05 09:17:46;;;;;;;35.65;22.88;;;;;;;;;;12824336;22;20027;-73
2023/12/05 09:22:43;;;;;;;35.67;23.52;;;;;;;;;;12824479;22;20016;-73
2023/12/05 09:27:39;;;;;;;37.10;24.48;;;;;;;;;;12819116;22;20338;-73
2023/12/05 09:32:36;;;;;;;36.10;23.83;;;;;;;;;;12824977;22;20023;-73
2023/12/05 09:37:32;;;;;;;35.50;23.58;;;;;;;;;;12823484;22;20023;-74
2023/12/05 09:42:30;;;;;;;37.08;23.00;;;;;;;;;;12824309;22;20026;-73
2023/12/05 09:47:27;;;;;;;34.50;22.13;;;;;;;;;;12823452;22;20066;-73
2023/12/05 09:52:24;;;;;;;37.05;24.02;;;;;;;;;;12823397;22;20392;-74
2023/12/05 09:57:25;;;;;;;29.13;18.45;;;;;;;;;;12823959;22;20054;-73
2023/12/05 10:02:23;;;;;;;36.67;23.83;;;;;;;;;;12823400;22;20536;-73
2023/12/05 10:07:21;;;;;;;41.78;22.85;;;;;;;;;;12822815;22;20110;-72
2023/12/05 10:12:18;;;;;;;37.90;24.30;;;;;;;;;;12823262;22;20027;-73
2023/12/05 10:17:16;;;;;;;45.53;24.10;;;;;;;;;;12823785;22;20496;-73
2023/12/05 10:22:12;;;;;;;37.22;24.45;;;;;;;;;;12821773;22;20372;-73
2023/12/05 10:27:09;;;;;;;40.67;24.25;;;;;;;;;;12816316;22;20023;-73
2023/12/05 10:32:06;;;;;;;40.13;23.13;;;;;;;;;;12823032;22;20046;-73
2023/12/05 10:37:03;;;;;;;37.97;24.10;;;;;;;;;;12822573;22;20016;-73
2023/12/05 10:41:59;;;;;;;35.03;23.45;;;;;;;;;;12822869;22;20463;-74
2023/12/05 10:46:56;;;;;;;38.70;23.95;;;;;;;;;;12822238;22;20027;-73
2023/12/05 10:51:52;;;;;;;39.42;24.60;;;;;;;;;;12822452;22;20054;-73
2023/12/05 10:56:57;;;;;;;37.40;24.35;;;;;;;;;;12822077;22;20050;-73
2023/12/05 11:01:56;;;;;;;33.92;22.70;;;;;;;;;;12822925;22;20073;-73
2023/12/05 11:06:53;;;;;;;34.90;23.10;;;;;;;;;;12821419;22;20045;-73
2023/12/05 11:11:51;;;;;;;35.05;23.15;;;;;;;;;;12822050;22;20027;-73
2023/12/05 11:16:52;;;;;;;40.88;24.85;;;;;;;;;;12821711;22;20019;-72
2023/12/05 11:21:49;;;;;;;36.30;23.98;;;;;;;;;;12821869;22;20043;-73
2023/12/05 11:27:04;;;;;;;39.10;22.08;;;;;;;;;;12821962;22;20034;-72
2023/12/05 11:32:12;;;;;;;37.90;24.33;;;;;;;;;;12817279;22;20073;-72
2023/12/05 11:37:17;;;;;;;36.35;22.15;;;;;;;;;;12822211;22;20106;-72
2023/12/05 11:42:14;;;;;;;38.53;22.83;;;;;;;;;;12821697;22;20098;-72
2023/12/05 11:47:24;;;;;;;39.30;22.95;;;;;;;;;;12821994;22;20034;-72
2023/12/05 11:52:21;;;;;;;40.13;23.90;;;;;;;;;;12820276;22;20023;-73
2023/12/05 11:57:19;;;;;;;39.13;23.20;;;;;;;;;;12820286;22;20423;-73
2023/12/05 12:02:16;;;;;;;37.42;22.58;;;;;;;;;;12821311;22;20034;-72
2023/12/05 12:07:13;;;;;;;34.70;22.77;;;;;;;;;;12821733;22;20030;-72
2023/12/05 12:12:09;;;;;;;35.10;24.42;;;;;;;;;;12821613;22;20468;-72
2023/12/05 12:17:06;;;;;;;36.13;24.52;;;;;;;;;;12821046;22;20027;-73
2023/12/05 12:22:09;;;;;;;38.97;21.63;;;;;;;;;;12821306;22;20027;-72
2023/12/05 12:27:07;;;;;;;41.08;24.02;;;;;;;;;;12821583;22;20023;-72
2023/12/05 12:32:08;;;;;;;38.28;23.63;;;;;;;;;;12814574;22;20400;-72
2023/12/05 12:37:05;;;;;;;31.73;24.13;;;;;;;;;;12821001;22;20404;-72
2023/12/05 12:42:16;;;;;;;37.13;23.58;;;;;;;;;;12820838;22;20081;-72
2023/12/05 12:47:13;;;;;;;36.95;23.92;;;;;;;;;;12822432;22;20057;-72
2023/12/05 12:52:10;;;;;;;32.78;22.50;;;;;;;;;;12825268;22;20077;-72
2023/12/05 12:57:07;;;;;;;37.63;22.85;;;;;;;;;;12824991;22;20366;-72
2023/12/05 13:02:04;;;;;;;28.63;20.95;;;;;;;;;;12824891;22;20027;-72
2023/12/05 13:07:01;;;;;;;37.15;23.00;;;;;;;;;;12824654;22;20072;-73
2023/12/05 13:11:57;;;;;;;30.67;22.63;;;;;;;;;;12823025;22;20023;-72
2023/12/05 13:16:54;;;;;;;34.95;22.98;;;;;;;;;;12824448;22;20024;-73
2023/12/05 13:21:51;;;;;;;33.92;23.00;;;;;;;;;;12820024;22;20031;-73
2023/12/05 13:26:47;;;;;;;34.53;24.38;;;;;;;;;;12824795;22;20540;-72
2023/12/05 13:31:44;;;;;;;36.38;22.52;;;;;;;;;;12818606;22;20924;-72
2023/12/05 13:36:40;;;;;;;36.00;23.10;;;;;;;;;;12823833;22;20023;-72
2023/12/05 13:41:36;;;;;;;34.50;23.25;;;;;;;;;;12824627;22;20026;-73
2023/12/05 13:46:33;;;;;;;32.17;22.73;;;;;;;;;;12823552;22;20473;-73
2023/12/05 13:51:33;;;;;;;31.85;21.73;;;;;;;;;;12824386;22;20086;-73
2023/12/05 13:56:29;;;;;;;34.83;22.80;;;;;;;;;;12822512;22;20072;-72
2023/12/05 14:01:26;;;;;;;32.20;22.73;;;;;;;;;;12824187;22;20031;-73
2023/12/05 14:06:22;;;;;;;35.65;22.00;;;;;;;;;;12823734;22;20024;-72
2023/12/05 14:11:19;;;;;;;30.02;21.20;;;;;;;;;;12822371;22;20106;-72
2023/12/05 14:16:15;;;;;;;36.67;21.88;;;;;;;;;;12823576;22;20027;-72
2023/12/05 14:21:11;;;;;;;32.65;23.17;;;;;;;;;;12822809;22;20023;-72
2023/12/05 14:26:08;;;;;;;32.55;21.92;;;;;;;;;;12822993;22;20030;-72
2023/12/05 14:31:04;;;;;;;30.30;21.52;;;;;;;;;;12823096;22;20027;-72
2023/12/05 14:36:01;;;;;;;35.85;23.38;;;;;;;;;;12816729;22;20055;-73
2023/12/05 14:40:57;;;;;;;30.90;23.10;;;;;;;;;;12822625;22;20187;-73
2023/12/05 14:45:53;;;;;;;32.58;23.92;;;;;;;;;;12823217;22;20027;-72
2023/12/05 14:50:50;;;;;;;34.60;22.33;;;;;;;;;;12819852;22;20103;-72
2023/12/05 14:55:46;;;;;;;30.33;23.05;;;;;;;;;;12821975;22;20019;-72
2023/12/05 15:00:42;;;;;;;35.97;23.50;;;;;;;;;;12821166;22;20338;-72
2023/12/05 15:05:39;;;;;;;34.42;22.60;;;;;;;;;;12822090;22;20030;-73
2023/12/05 15:10:35;;;;;;;35.30;22.10;;;;;;;;;;12820474;22;20019;-72
2023/12/05 15:15:32;;;;;;;33.42;22.65;;;;;;;;;;12822049;22;20030;-72
2023/12/05 15:20:28;;;;;;;30.27;22.65;;;;;;;;;;12822672;22;20682;-73
2023/12/05 15:25:25;;;;;;;31.17;22.98;;;;;;;;;;12822528;22;20030;-73
2023/12/05 15:30:21;;;;;;;32.78;22.83;;;;;;;;;;12814582;22;20037;-73
2023/12/05 15:35:18;;;;;;;38.67;24.42;;;;;;;;;;12813713;22;20698;-71
2023/12/05 15:40:16;;;;;;;36.03;23.23;;;;;;;;;;12808887;22;20414;-72
2023/12/05 15:45:12;;;;;;;40.72;26.48;;;;;;;;;;12820189;22;20019;-72
2023/12/05 15:50:09;;;;;;;40.42;25.40;;;;;;;;;;12819234;22;20103;-72
2023/12/05 15:55:06;;;;;;;38.05;25.00;;;;;;;;;;12819886;22;20050;-71
2023/12/05 16:00:04;;;;;;;38.35;25.20;;;;;;;;;;12820050;22;20027;-71
2023/12/05 16:05:01;;;;;;;34.35;25.00;;;;;;;;;;12818987;22;20019;-71
2023/12/05 16:09:58;;;;;;;36.55;24.70;;;;;;;;;;12818323;22;20589;-72
2023/12/05 16:14:54;;;;;;;32.80;23.98;;;;;;;;;;12813702;22;20113;-74
2023/12/05 16:19:51;;;;;;;33.40;25.48;;;;;;;;;;12812439;22;20077;-74
2023/12/05 16:24:47;;;;;;;36.38;25.75;;;;;;;;;;12816836;22;20043;-74
2023/12/05 16:29:44;;;;;;;35.40;24.70;;;;;;;;;;12816885;22;20015;-74
2023/12/05 16:34:41;;;;;;;35.08;25.10;;;;;;;;;;12815061;22;20023;-74
2023/12/05 16:39:37;;;;;;;43.75;26.98;;;;;;;;;;12824872;22;20037;-74
2023/12/05 16:44:34;;;;;;;36.88;26.15;;;;;;;;;;12824788;22;20338;-74
2023/12/05 16:49:30;;;;;;;39.78;25.45;;;;;;;;;;12824201;22;20066;-75
2023/12/05 16:54:27;;;;;;;35.78;25.95;;;;;;;;;;12824476;22;20076;-74
2023/12/05 16:59:23;;;;;;;39.70;25.80;;;;;;;;;;12821414;22;20411;-73
2023/12/05 17:04:28;;;;;;;40.28;25.95;;;;;;;;;;12821561;22;20065;-74
2023/12/05 17:09:27;;;;;;;35.72;25.38;;;;;;;;;;12823448;22;20077;-74
2023/12/05 17:14:23;;;;;;;35.13;25.35;;;;;;;;;;12823892;22;20460;-73
2023/12/05 17:19:20;;;;;;;41.03;28.33;;;;;;;;;;12823360;22;20350;-72
2023/12/05 17:24:17;;;;;;;37.90;27.15;;;;;;;;;;12823818;22;20026;-72
2023/12/05 17:29:13;;;;;;;37.65;27.27;;;;;;;;;;12824108;22;20019;-73
2023/12/05 17:34:10;;;;;;;44.35;29.83;;;;;;;;;;12823156;22;20074;-73
2023/12/05 17:39:06;;;;;;;50.75;30.08;;;;;;;;;;12816195;22;20042;-73
2023/12/05 17:44:03;;;;;;;40.22;28.73;;;;;;;;;;12823613;22;20027;-73
2023/12/05 17:48:59;;;;;;;43.75;27.80;;;;;;;;;;12823944;22;20031;-73
2023/12/05 17:53:56;;;;;;;41.30;26.65;;;;;;;;;;12822707;22;20043;-74
2023/12/05 17:58:52;;;;;;;41.03;29.00;;;;;;;;;;12823150;22;20053;-73
2023/12/05 18:03:49;;;;;;;45.20;30.33;;;;;;;;;;12820463;22;20020;-73
2023/12/05 18:08:45;;;;;;;47.88;31.23;;;;;;;;;;12823280;22;20342;-73
2023/12/05 18:13:41;;;;;;;47.88;31.10;;;;;;;;;;12822968;22;20023;-73
2023/12/05 18:18:38;;;;;;;48.88;30.52;;;;;;;;;;12823082;22;20027;-73
2023/12/05 18:23:35;;;;;;;42.92;31.55;;;;;;;;;;12820999;22;20023;-73
2023/12/05 18:28:31;;;;;;;47.15;30.05;;;;;;;;;;12821176;22;20098;-73
2023/12/05 18:33:28;;;;;;;43.92;30.10;;;;;;;;;;12823013;22;20023;-73
2023/12/05 18:38:26;;;;;;;43.67;30.10;;;;;;;;;;12817308;22;20016;-73
2023/12/05 18:43:22;;;;;;;45.95;30.05;;;;;;;;;;12821482;22;20023;-73
2023/12/05 18:48:18;;;;;;;47.40;29.77;;;;;;;;;;12821608;22;20020;-73
2023/12/05 18:53:15;;;;;;;48.17;32.45;;;;;;;;;;12822513;22;20039;-73
2023/12/05 18:58:11;;;;;;;49.05;30.50;;;;;;;;;;12815883;22;20376;-74
2023/12/05 19:03:08;;;;;;;48.42;31.23;;;;;;;;;;12821037;22;20026;-73
2023/12/05 19:08:05;;;;;;;46.88;30.50;;;;;;;;;;12821429;22;20027;-73
2023/12/05 19:13:01;;;;;;;51.03;30.90;;;;;;;;;;12822019;22;20447;-73
2023/12/05 19:28:34;;;;;;;47.78;30.75;;;;;;;;;;10315062;27;20729;-71
2023/12/05 19:33:46;;;;;;;53.03;30.33;;;;;;;;;;10298588;28;20040;-72
2023/12/05 19:38:42;;;;;;;48.72;29.67;;;;;;;;;;10289504;28;20119;-71
2023/12/05 19:43:38;;;;;;;49.08;30.80;;;;;;;;;;10296504;28;20682;-71
2023/12/05 19:48:35;;;;;;;48.83;30.65;;;;;;;;;;10281699;28;20060;-72
2023/12/05 19:53:32;;;;;;;44.10;30.23;;;;;;;;;;10284532;28;20069;-72
2023/12/05 19:58:28;;;;;;;49.83;30.45;;;;;;;;;;10294613;28;20053;-72
2023/12/05 20:03:24;;;;;;;44.80;29.25;;;;;;;;;;10292493;28;20140;-71
2023/12/05 20:08:21;;;;;;;41.50;28.55;;;;;;;;;;10290192;28;20123;-72
2023/12/05 20:13:17;;;;;;;47.25;30.10;;;;;;;;;;10277874;28;20034;-72
2023/12/05 20:18:14;;;;;;;45.47;29.67;;;;;;;;;;10297160;28;20452;-71
2023/12/05 20:23:10;;;;;;;49.88;29.25;;;;;;;;;;10301352;28;20036;-72
2023/12/05 20:28:07;;;;;;;43.60;28.70;;;;;;;;;;10286104;28;20037;-71
2023/12/05 20:33:03;;;;;;;45.00;29.83;;;;;;;;;;10265295;28;20041;-74
2023/12/05 20:38:01;;;;;;;45.58;28.70;;;;;;;;;;10251582;28;20044;-73
2023/12/05 20:42:58;;;;;;;45.13;29.83;;;;;;;;;;10264929;28;20142;-71
2023/12/05 20:47:54;;;;;;;51.97;30.25;;;;;;;;;;10260187;28;20045;-72
2023/12/05 20:52:54;;;;;;;50.50;30.48;;;;;;;;;;10269515;28;20569;-72
2023/12/05 20:57:51;;;;;;;45.65;29.33;;;;;;;;;;10259682;28;20122;-69
2023/12/05 21:02:47;;;;;;;42.50;28.73;;;;;;;;;;10256150;28;20124;-66
2023/12/05 21:07:44;;;;;;;47.78;29.60;;;;;;;;;;10258677;28;20040;-67
2023/12/05 21:12:40;;;;;;;44.30;29.40;;;;;;;;;;10266384;28;20053;-69
2023/12/05 21:17:37;;;;;;;46.42;28.55;;;;;;;;;;10268491;28;20053;-67
2023/12/05 21:22:33;;;;;;;42.03;28.92;;;;;;;;;;10262740;28;20091;-67
2023/12/05 21:27:30;;;;;;;46.08;27.83;;;;;;;;;;10258643;28;20050;-68
2023/12/05 21:32:26;;;;;;;43.58;27.27;;;;;;;;;;10262525;28;20065;-68
2023/12/05 21:37:24;;;;;;;40.25;27.05;;;;;;;;;;10261247;28;20152;-67
2023/12/05 21:42:21;;;;;;;42.83;30.33;;;;;;;;;;10261238;28;20037;-67
2023/12/05 21:47:17;;;;;;;43.97;29.77;;;;;;;;;;10266428;28;20584;-67
2023/12/05 21:52:14;;;;;;;41.00;27.00;;;;;;;;;;10262278;28;20514;-67
2023/12/05 21:57:11;;;;;;;45.20;28.92;;;;;;;;;;10259611;28;20048;-67
2023/12/05 22:02:08;;;;;;;47.28;29.27;;;;;;;;;;10264372;28;20049;-67
2023/12/05 22:07:04;;;;;;;45.33;29.08;;;;;;;;;;10254394;28;20495;-67
2023/12/05 22:12:00;;;;;;;43.35;29.30;;;;;;;;;;10258955;28;20165;-67
2023/12/05 22:16:57;;;;;;;49.13;29.70;;;;;;;;;;10268831;28;20555;-66
2023/12/05 22:21:53;;;;;;;47.92;29.45;;;;;;;;;;10262204;28;20564;-66
2023/12/05 22:26:49;;;;;;;44.88;28.77;;;;;;;;;;10259564;28;20136;-66
2023/12/05 22:31:45;;;;;;;51.28;29.42;;;;;;;;;;10262500;28;20060;-66
2023/12/05 22:36:42;;;;;;;51.97;29.38;;;;;;;;;;10252399;28;20075;-66
2023/12/05 22:41:43;;;;;;;49.20;30.17;;;;;;;;;;10251958;28;20049;-66
2023/12/05 22:46:39;;;;;;;48.13;30.85;;;;;;;;;;10263358;28;20556;-67
2023/12/05 22:51:38;;;;;;;48.58;29.88;;;;;;;;;;10254148;28;20064;-65
2023/12/05 22:56:35;;;;;;;44.75;28.55;;;;;;;;;;10256570;28;20047;-66
2023/12/05 23:01:31;;;;;;;48.45;28.63;;;;;;;;;;10253226;28;20568;-66
2023/12/05 23:06:27;;;;;;;44.78;28.98;;;;;;;;;;10260235;28;20053;-66
2023/12/05 23:11:24;;;;;;;53.83;31.02;;;;;;;;;;10257465;28;20502;-67
2023/12/05 23:16:20;;;;;;;53.95;32.08;;;;;;;;;;10254973;28;20556;-66
2023/12/05 23:21:16;;;;;;;46.22;29.02;;;;;;;;;;10267135;28;20075;-67
2023/12/05 23:26:12;;;;;;;54.63;31.38;;;;;;;;;;10246857;28;20076;-67
2023/12/05 23:31:09;;;;;;;50.78;31.15;;;;;;;;;;10252198;28;20052;-67
2023/12/05 23:36:06;;;;;;;53.08;30.58;;;;;;;;;;10266681;28;20057;-66
2023/12/05 23:41:02;;;;;;;55.08;31.38;;;;;;;;;;10257040;28;20092;-66
2023/12/05 23:45:58;;;;;;;60.63;32.38;;;;;;;;;;10261404;28;20155;-65
2023/12/05 23:50:55;;;;;;;54.28;31.17;;;;;;;;;;10261421;28;20091;-66
2023/12/05 23:55:52;;;;;;;63.45;32.38;;;;;;;;;;10252115;28;20069;-67
